sensor_id;sensor_type;location;lat;lon;timestamp;P1;durP1;ratioP1;P2;durP2;ratioP2
21315;SDS011;10817;55.820;13.030;2023-04-24T00:00:39;39.88;;;26.65;;
21315;SDS011;10817;55.820;13.030;2023-04-24T00:03:07;40.88;;;26.50;;
21315;SDS011;10817;55.820;13.030;2023-04-24T00:05:34;37.83;;;25.60;;
21315;SDS011;10817;55.820;13.030;2023-04-24T00:08:05;39.92;;;25.55;;
21315;SDS011;10817;55.820;13.030;2023-04-24T00:10:32;44.97;;;25.23;;
21315;SDS011;10817;55.820;13.030;2023-04-24T00:13:02;38.58;;;25.33;;
21315;SDS011;10817;55.820;13.030;2023-04-24T00:15:29;37.30;;;24.25;;
21315;SDS011;10817;55.820;13.030;2023-04-24T00:17:58;42.45;;;26.27;;
21315;SDS011;10817;55.820;13.030;2023-04-24T00:20:26;42.42;;;26.15;;
21315;SDS011;10817;55.820;13.030;2023-04-24T00:22:54;42.50;;;26.73;;
21315;SDS011;10817;55.820;13.030;2023-04-24T00:25:21;41.70;;;26.30;;
21315;SDS011;10817;55.820;13.030;2023-04-24T00:27:48;40.90;;;26.98;;
21315;SDS011;10817;55.820;13.030;2023-04-24T00:30:16;41.30;;;26.88;;
21315;SDS011;10817;55.820;13.030;2023-04-24T00:32:43;38.92;;;25.02;;
21315;SDS011;10817;55.820;13.030;2023-04-24T00:35:12;41.00;;;25.27;;
21315;SDS011;10817;55.820;13.030;2023-04-24T00:37:39;37.35;;;25.20;;
21315;SDS011;10817;55.820;13.030;2023-04-24T00:40:07;41.47;;;26.17;;
21315;SDS011;10817;55.820;13.030;2023-04-24T00:42:34;37.80;;;26.13;;
21315;SDS011;10817;55.820;13.030;2023-04-24T00:45:03;41.85;;;27.67;;
21315;SDS011;10817;55.820;13.030;2023-04-24T00:47:31;39.75;;;25.67;;
21315;SDS011;10817;55.820;13.030;2023-04-24T00:50:00;43.20;;;27.00;;
21315;SDS011;10817;55.820;13.030;2023-04-24T00:52:29;40.83;;;25.90;;
21315;SDS011;10817;55.820;13.030;2023-04-24T00:54:59;41.90;;;25.00;;
21315;SDS011;10817;55.820;13.030;2023-04-24T00:57:27;37.88;;;25.48;;
21315;SDS011;10817;55.820;13.030;2023-04-24T00:59:57;37.97;;;24.88;;
21315;SDS011;10817;55.820;13.030;2023-04-24T01:02:27;35.92;;;24.95;;
21315;SDS011;10817;55.820;13.030;2023-04-24T01:04:55;36.85;;;24.67;;
21315;SDS011;10817;55.820;13.030;2023-04-24T01:07:22;34.20;;;22.63;;
21315;SDS011;10817;55.820;13.030;2023-04-24T01:09:51;32.58;;;23.25;;
21315;SDS011;10817;55.820;13.030;2023-04-24T01:12:18;34.00;;;23.17;;
21315;SDS011;10817;55.820;13.030;2023-04-24T01:14:46;33.90;;;23.70;;
21315;SDS011;10817;55.820;13.030;2023-04-24T01:17:14;35.30;;;24.20;;
21315;SDS011;10817;55.820;13.030;2023-04-24T01:19:41;38.25;;;25.02;;
21315;SDS011;10817;55.820;13.030;2023-04-24T01:22:11;33.60;;;23.38;;
21315;SDS011;10817;55.820;13.030;2023-04-24T01:24:39;38.95;;;25.40;;
21315;SDS011;10817;55.820;13.030;2023-04-24T01:27:07;41.28;;;24.77;;
21315;SDS011;10817;55.820;13.030;2023-04-24T01:29:35;39.60;;;25.08;;
21315;SDS011;10817;55.820;13.030;2023-04-24T01:32:02;42.72;;;25.13;;
21315;SDS011;10817;55.820;13.030;2023-04-24T01:34:30;40.67;;;25.30;;
21315;SDS011;10817;55.820;13.030;2023-04-24T01:36:57;42.17;;;26.48;;
21315;SDS011;10817;55.820;13.030;2023-04-24T01:39:26;39.30;;;25.30;;
21315;SDS011;10817;55.820;13.030;2023-04-24T01:41:54;40.65;;;25.13;;
21315;SDS011;10817;55.820;13.030;2023-04-24T01:44:21;41.20;;;27.20;;
21315;SDS011;10817;55.820;13.030;2023-04-24T01:46:48;44.53;;;26.80;;
21315;SDS011;10817;55.820;13.030;2023-04-24T01:49:15;44.97;;;27.77;;
21315;SDS011;10817;55.820;13.030;2023-04-24T01:51:44;45.50;;;29.65;;
21315;SDS011;10817;55.820;13.030;2023-04-24T01:54:11;44.80;;;28.00;;
21315;SDS011;10817;55.820;13.030;2023-04-24T01:56:40;46.25;;;28.45;;
21315;SDS011;10817;55.820;13.030;2023-04-24T01:59:09;47.47;;;28.25;;
21315;SDS011;10817;55.820;13.030;2023-04-24T02:01:36;43.25;;;27.13;;
21315;SDS011;10817;55.820;13.030;2023-04-24T02:04:04;42.88;;;27.55;;
21315;SDS011;10817;55.820;13.030;2023-04-24T02:06:33;46.30;;;27.00;;
21315;SDS011;10817;55.820;13.030;2023-04-24T02:09:01;46.17;;;28.00;;
21315;SDS011;10817;55.820;13.030;2023-04-24T02:11:29;44.45;;;27.48;;
21315;SDS011;10817;55.820;13.030;2023-04-24T02:13:58;45.67;;;27.50;;
21315;SDS011;10817;55.820;13.030;2023-04-24T02:16:25;44.58;;;27.52;;
21315;SDS011;10817;55.820;13.030;2023-04-24T02:18:52;44.55;;;28.45;;
21315;SDS011;10817;55.820;13.030;2023-04-24T02:21:19;45.20;;;27.55;;
21315;SDS011;10817;55.820;13.030;2023-04-24T02:23:47;44.25;;;26.60;;
21315;SDS011;10817;55.820;13.030;2023-04-24T02:26:14;42.47;;;25.25;;
21315;SDS011;10817;55.820;13.030;2023-04-24T02:28:43;46.10;;;26.92;;
21315;SDS011;10817;55.820;13.030;2023-04-24T02:31:11;43.85;;;26.45;;
21315;SDS011;10817;55.820;13.030;2023-04-24T02:33:39;45.22;;;28.17;;
21315;SDS011;10817;55.820;13.030;2023-04-24T02:36:07;43.83;;;26.52;;
21315;SDS011;10817;55.820;13.030;2023-04-24T02:38:34;40.25;;;24.80;;
21315;SDS011;10817;55.820;13.030;2023-04-24T02:41:01;41.90;;;26.00;;
21315;SDS011;10817;55.820;13.030;2023-04-24T02:43:31;42.17;;;26.30;;
21315;SDS011;10817;55.820;13.030;2023-04-24T02:45:58;48.70;;;27.25;;
21315;SDS011;10817;55.820;13.030;2023-04-24T02:48:27;42.38;;;26.20;;
21315;SDS011;10817;55.820;13.030;2023-04-24T02:50:54;42.15;;;26.83;;
21315;SDS011;10817;55.820;13.030;2023-04-24T02:53:22;39.45;;;25.90;;
21315;SDS011;10817;55.820;13.030;2023-04-24T02:55:49;46.80;;;28.23;;
21315;SDS011;10817;55.820;13.030;2023-04-24T02:58:17;49.60;;;29.70;;
21315;SDS011;10817;55.820;13.030;2023-04-24T03:00:45;46.83;;;28.58;;
21315;SDS011;10817;55.820;13.030;2023-04-24T03:03:13;49.65;;;29.13;;
21315;SDS011;10817;55.820;13.030;2023-04-24T03:05:41;50.65;;;30.80;;
21315;SDS011;10817;55.820;13.030;2023-04-24T03:08:09;51.22;;;30.55;;
21315;SDS011;10817;55.820;13.030;2023-04-24T03:10:36;52.17;;;31.17;;
21315;SDS011;10817;55.820;13.030;2023-04-24T03:13:03;52.88;;;31.88;;
21315;SDS011;10817;55.820;13.030;2023-04-24T03:15:30;51.47;;;31.98;;
21315;SDS011;10817;55.820;13.030;2023-04-24T03:17:57;47.90;;;30.52;;
21315;SDS011;10817;55.820;13.030;2023-04-24T03:20:25;52.22;;;31.40;;
21315;SDS011;10817;55.820;13.030;2023-04-24T03:22:57;51.10;;;30.88;;
21315;SDS011;10817;55.820;13.030;2023-04-24T03:25:24;49.55;;;29.13;;
21315;SDS011;10817;55.820;13.030;2023-04-24T03:27:55;50.63;;;29.98;;
21315;SDS011;10817;55.820;13.030;2023-04-24T03:30:31;48.85;;;31.02;;
21315;SDS011;10817;55.820;13.030;2023-04-24T03:33:00;48.45;;;30.65;;
21315;SDS011;10817;55.820;13.030;2023-04-24T03:35:33;51.33;;;31.15;;
21315;SDS011;10817;55.820;13.030;2023-04-24T03:38:05;47.70;;;30.65;;
21315;SDS011;10817;55.820;13.030;2023-04-24T03:40:53;47.55;;;29.77;;
21315;SDS011;10817;55.820;13.030;2023-04-24T03:43:50;47.13;;;28.73;;
21315;SDS011;10817;55.820;13.030;2023-04-24T03:46:17;46.38;;;29.65;;
21315;SDS011;10817;55.820;13.030;2023-04-24T03:48:51;49.97;;;30.20;;
21315;SDS011;10817;55.820;13.030;2023-04-24T03:51:22;50.58;;;30.67;;
21315;SDS011;10817;55.820;13.030;2023-04-24T03:53:55;50.25;;;31.13;;
21315;SDS011;10817;55.820;13.030;2023-04-24T03:56:25;51.10;;;32.05;;
21315;SDS011;10817;55.820;13.030;2023-04-24T03:58:52;52.05;;;31.40;;
21315;SDS011;10817;55.820;13.030;2023-04-24T04:01:19;55.47;;;31.92;;
21315;SDS011;10817;55.820;13.030;2023-04-24T04:04:00;51.28;;;31.92;;
21315;SDS011;10817;55.820;13.030;2023-04-24T04:06:28;54.85;;;32.90;;
21315;SDS011;10817;55.820;13.030;2023-04-24T04:08:59;58.13;;;33.70;;
21315;SDS011;10817;55.820;13.030;2023-04-24T04:11:28;56.63;;;30.52;;
21315;SDS011;10817;55.820;13.030;2023-04-24T04:13:55;53.20;;;30.38;;
21315;SDS011;10817;55.820;13.030;2023-04-24T04:16:24;53.03;;;30.38;;
21315;SDS011;10817;55.820;13.030;2023-04-24T04:18:57;56.22;;;30.75;;
21315;SDS011;10817;55.820;13.030;2023-04-24T04:21:24;55.88;;;30.13;;
21315;SDS011;10817;55.820;13.030;2023-04-24T04:24:02;50.42;;;28.15;;
21315;SDS011;10817;55.820;13.030;2023-04-24T04:26:35;52.88;;;28.30;;
21315;SDS011;10817;55.820;13.030;2023-04-24T04:29:08;60.47;;;29.50;;
21315;SDS011;10817;55.820;13.030;2023-04-24T04:31:40;65.32;;;29.92;;
21315;SDS011;10817;55.820;13.030;2023-04-24T04:34:11;51.47;;;26.50;;
21315;SDS011;10817;55.820;13.030;2023-04-24T04:36:40;58.42;;;29.77;;
21315;SDS011;10817;55.820;13.030;2023-04-24T04:39:33;60.33;;;29.40;;
21315;SDS011;10817;55.820;13.030;2023-04-24T04:42:04;62.17;;;28.77;;
21315;SDS011;10817;55.820;13.030;2023-04-24T04:44:38;61.60;;;30.83;;
21315;SDS011;10817;55.820;13.030;2023-04-24T04:47:08;61.22;;;30.00;;
21315;SDS011;10817;55.820;13.030;2023-04-24T04:49:39;56.78;;;28.85;;
21315;SDS011;10817;55.820;13.030;2023-04-24T04:52:25;57.65;;;30.20;;
21315;SDS011;10817;55.820;13.030;2023-04-24T04:55:06;47.97;;;27.10;;
21315;SDS011;10817;55.820;13.030;2023-04-24T04:58:02;49.00;;;25.88;;
21315;SDS011;10817;55.820;13.030;2023-04-24T05:00:30;46.08;;;25.27;;
21315;SDS011;10817;55.820;13.030;2023-04-24T05:03:02;41.13;;;24.02;;
21315;SDS011;10817;55.820;13.030;2023-04-24T05:05:34;38.88;;;23.58;;
21315;SDS011;10817;55.820;13.030;2023-04-24T05:08:07;44.45;;;24.67;;
21315;SDS011;10817;55.820;13.030;2023-04-24T05:10:36;41.65;;;24.52;;
21315;SDS011;10817;55.820;13.030;2023-04-24T05:13:04;38.35;;;24.35;;
21315;SDS011;10817;55.820;13.030;2023-04-24T05:15:35;43.10;;;25.52;;
21315;SDS011;10817;55.820;13.030;2023-04-24T05:18:03;39.10;;;24.15;;
21315;SDS011;10817;55.820;13.030;2023-04-24T05:20:33;38.70;;;23.58;;
21315;SDS011;10817;55.820;13.030;2023-04-24T05:23:00;39.63;;;24.10;;
21315;SDS011;10817;55.820;13.030;2023-04-24T05:25:29;38.35;;;23.60;;
21315;SDS011;10817;55.820;13.030;2023-04-24T05:34:15;36.50;;;23.38;;
21315;SDS011;10817;55.820;13.030;2023-04-24T05:36:44;36.35;;;22.45;;
21315;SDS011;10817;55.820;13.030;2023-04-24T05:39:13;36.30;;;23.23;;
21315;SDS011;10817;55.820;13.030;2023-04-24T05:41:44;32.28;;;22.38;;
21315;SDS011;10817;55.820;13.030;2023-04-24T05:44:11;32.10;;;20.25;;
21315;SDS011;10817;55.820;13.030;2023-04-24T05:47:36;32.75;;;22.50;;
21315;SDS011;10817;55.820;13.030;2023-04-24T05:50:54;32.30;;;20.92;;
21315;SDS011;10817;55.820;13.030;2023-04-24T05:53:23;31.30;;;20.23;;
21315;SDS011;10817;55.820;13.030;2023-04-24T05:55:59;29.67;;;20.48;;
21315;SDS011;10817;55.820;13.030;2023-04-24T05:58:26;31.70;;;21.10;;
21315;SDS011;10817;55.820;13.030;2023-04-24T06:01:21;28.55;;;19.20;;
21315;SDS011;10817;55.820;13.030;2023-04-24T06:09:36;27.73;;;18.15;;
21315;SDS011;10817;55.820;13.030;2023-04-24T06:18:44;22.30;;;15.68;;
21315;SDS011;10817;55.820;13.030;2023-04-24T06:21:13;20.27;;;14.18;;
21315;SDS011;10817;55.820;13.030;2023-04-24T06:23:41;17.50;;;13.70;;
21315;SDS011;10817;55.820;13.030;2023-04-24T06:26:09;19.08;;;13.82;;
21315;SDS011;10817;55.820;13.030;2023-04-24T06:28:44;17.83;;;13.55;;
21315;SDS011;10817;55.820;13.030;2023-04-24T06:31:17;16.58;;;12.32;;
21315;SDS011;10817;55.820;13.030;2023-04-24T06:35:03;15.98;;;12.40;;
21315;SDS011;10817;55.820;13.030;2023-04-24T06:37:12;47.40;;;14.52;;
21315;SDS011;10817;55.820;13.030;2023-04-24T06:39:44;21.00;;;13.27;;
21315;SDS011;10817;55.820;13.030;2023-04-24T06:42:15;17.40;;;12.50;;
21315;SDS011;10817;55.820;13.030;2023-04-24T06:44:50;15.88;;;11.77;;
21315;SDS011;10817;55.820;13.030;2023-04-24T06:47:18;14.65;;;11.93;;
21315;SDS011;10817;55.820;13.030;2023-04-24T06:50:13;15.35;;;11.80;;
21315;SDS011;10817;55.820;13.030;2023-04-24T06:52:40;18.60;;;11.93;;
21315;SDS011;10817;55.820;13.030;2023-04-24T06:55:07;13.68;;;10.88;;
21315;SDS011;10817;55.820;13.030;2023-04-24T06:57:37;14.30;;;10.75;;
21315;SDS011;10817;55.820;13.030;2023-04-24T07:00:05;16.23;;;10.52;;
21315;SDS011;10817;55.820;13.030;2023-04-24T07:02:34;72.13;;;13.93;;
21315;SDS011;10817;55.820;13.030;2023-04-24T07:05:04;68.22;;;14.98;;
21315;SDS011;10817;55.820;13.030;2023-04-24T07:07:39;16.88;;;9.90;;
21315;SDS011;10817;55.820;13.030;2023-04-24T07:10:17;15.30;;;9.75;;
21315;SDS011;10817;55.820;13.030;2023-04-24T07:13:03;13.65;;;9.40;;
21315;SDS011;10817;55.820;13.030;2023-04-24T07:19:52;10.75;;;7.38;;
21315;SDS011;10817;55.820;13.030;2023-04-24T07:22:28;12.23;;;8.20;;
21315;SDS011;10817;55.820;13.030;2023-04-24T07:24:56;11.20;;;7.95;;
21315;SDS011;10817;55.820;13.030;2023-04-24T07:27:23;10.98;;;7.68;;
21315;SDS011;10817;55.820;13.030;2023-04-24T07:30:17;10.48;;;7.10;;
21315;SDS011;10817;55.820;13.030;2023-04-24T07:32:48;9.63;;;6.90;;
21315;SDS011;10817;55.820;13.030;2023-04-24T07:35:18;7.75;;;5.85;;
21315;SDS011;10817;55.820;13.030;2023-04-24T07:37:45;7.82;;;6.20;;
21315;SDS011;10817;55.820;13.030;2023-04-24T07:40:13;9.15;;;6.10;;
21315;SDS011;10817;55.820;13.030;2023-04-24T07:42:40;6.47;;;5.75;;
21315;SDS011;10817;55.820;13.030;2023-04-24T07:45:11;6.93;;;5.88;;
21315;SDS011;10817;55.820;13.030;2023-04-24T07:47:49;6.30;;;5.38;;
21315;SDS011;10817;55.820;13.030;2023-04-24T07:50:29;12.13;;;5.32;;
21315;SDS011;10817;55.820;13.030;2023-04-24T07:53:14;6.63;;;5.72;;
21315;SDS011;10817;55.820;13.030;2023-04-24T07:55:41;7.85;;;5.85;;
21315;SDS011;10817;55.820;13.030;2023-04-24T07:58:08;7.53;;;5.32;;
21315;SDS011;10817;55.820;13.030;2023-04-24T08:00:36;7.90;;;5.63;;
21315;SDS011;10817;55.820;13.030;2023-04-24T08:03:09;5.80;;;5.20;;
21315;SDS011;10817;55.820;13.030;2023-04-24T08:05:40;5.53;;;5.00;;
21315;SDS011;10817;55.820;13.030;2023-04-24T08:08:08;6.70;;;5.20;;
21315;SDS011;10817;55.820;13.030;2023-04-24T08:10:36;8.45;;;5.25;;
21315;SDS011;10817;55.820;13.030;2023-04-24T08:13:07;8.00;;;5.60;;
21315;SDS011;10817;55.820;13.030;2023-04-24T08:15:46;7.25;;;5.97;;
21315;SDS011;10817;55.820;13.030;2023-04-24T08:18:22;6.63;;;5.55;;
21315;SDS011;10817;55.820;13.030;2023-04-24T08:21:00;8.45;;;5.60;;
21315;SDS011;10817;55.820;13.030;2023-04-24T08:23:33;9.43;;;5.65;;
21315;SDS011;10817;55.820;13.030;2023-04-24T08:26:00;10.02;;;6.43;;
21315;SDS011;10817;55.820;13.030;2023-04-24T08:28:28;6.90;;;6.20;;
21315;SDS011;10817;55.820;13.030;2023-04-24T08:30:58;10.90;;;7.13;;
21315;SDS011;10817;55.820;13.030;2023-04-24T08:33:28;8.40;;;6.63;;
21315;SDS011;10817;55.820;13.030;2023-04-24T08:36:00;9.20;;;6.63;;
21315;SDS011;10817;55.820;13.030;2023-04-24T08:38:45;11.25;;;7.00;;
21315;SDS011;10817;55.820;13.030;2023-04-24T08:41:15;9.98;;;6.72;;
21315;SDS011;10817;55.820;13.030;2023-04-24T08:43:45;8.82;;;6.55;;
21315;SDS011;10817;55.820;13.030;2023-04-24T08:46:16;11.52;;;7.05;;
21315;SDS011;10817;55.820;13.030;2023-04-24T08:48:44;11.23;;;7.05;;
21315;SDS011;10817;55.820;13.030;2023-04-24T08:51:19;8.20;;;6.15;;
21315;SDS011;10817;55.820;13.030;2023-04-24T08:53:47;7.80;;;6.32;;
21315;SDS011;10817;55.820;13.030;2023-04-24T08:56:14;6.70;;;6.00;;
21315;SDS011;10817;55.820;13.030;2023-04-24T08:58:56;8.02;;;5.30;;
21315;SDS011;10817;55.820;13.030;2023-04-24T09:01:26;7.70;;;5.70;;
21315;SDS011;10817;55.820;13.030;2023-04-24T09:04:07;8.18;;;5.68;;
21315;SDS011;10817;55.820;13.030;2023-04-24T09:06:38;7.30;;;5.30;;
21315;SDS011;10817;55.820;13.030;2023-04-24T09:09:06;6.32;;;5.18;;
21315;SDS011;10817;55.820;13.030;2023-04-24T09:11:35;6.28;;;5.20;;
21315;SDS011;10817;55.820;13.030;2023-04-24T09:14:17;7.57;;;4.57;;
21315;SDS011;10817;55.820;13.030;2023-04-24T09:16:48;5.50;;;4.60;;
21315;SDS011;10817;55.820;13.030;2023-04-24T09:19:20;5.60;;;4.13;;
21315;SDS011;10817;55.820;13.030;2023-04-24T09:21:50;6.93;;;4.32;;
21315;SDS011;10817;55.820;13.030;2023-04-24T09:24:26;4.88;;;3.78;;
21315;SDS011;10817;55.820;13.030;2023-04-24T09:26:59;5.53;;;4.25;;
21315;SDS011;10817;55.820;13.030;2023-04-24T09:29:28;5.50;;;3.97;;
21315;SDS011;10817;55.820;13.030;2023-04-24T09:31:57;6.03;;;4.15;;
21315;SDS011;10817;55.820;13.030;2023-04-24T09:35:13;9.60;;;3.92;;
21315;SDS011;10817;55.820;13.030;2023-04-24T09:37:41;6.65;;;4.07;;
21315;SDS011;10817;55.820;13.030;2023-04-24T09:40:12;5.55;;;4.30;;
21315;SDS011;10817;55.820;13.030;2023-04-24T09:42:40;7.78;;;4.13;;
21315;SDS011;10817;55.820;13.030;2023-04-24T09:45:10;5.95;;;4.40;;
21315;SDS011;10817;55.820;13.030;2023-04-24T09:47:38;5.13;;;3.97;;
21315;SDS011;10817;55.820;13.030;2023-04-24T09:56:05;5.10;;;4.10;;
21315;SDS011;10817;55.820;13.030;2023-04-24T09:58:49;9.32;;;3.67;;
21315;SDS011;10817;55.820;13.030;2023-04-24T10:01:28;5.82;;;4.22;;
21315;SDS011;10817;55.820;13.030;2023-04-24T10:03:56;5.88;;;3.80;;
21315;SDS011;10817;55.820;13.030;2023-04-24T10:06:37;5.20;;;3.42;;
21315;SDS011;10817;55.820;13.030;2023-04-24T10:09:05;4.03;;;3.58;;
21315;SDS011;10817;55.820;13.030;2023-04-24T10:11:37;6.32;;;3.50;;
21315;SDS011;10817;55.820;13.030;2023-04-24T10:14:04;4.63;;;3.72;;
21315;SDS011;10817;55.820;13.030;2023-04-24T10:16:34;5.63;;;3.90;;
21315;SDS011;10817;55.820;13.030;2023-04-24T10:19:01;4.68;;;4.18;;
21315;SDS011;10817;55.820;13.030;2023-04-24T10:21:29;4.90;;;3.78;;
21315;SDS011;10817;55.820;13.030;2023-04-24T10:23:57;8.75;;;4.63;;
21315;SDS011;10817;55.820;13.030;2023-04-24T10:26:29;5.57;;;3.92;;
21315;SDS011;10817;55.820;13.030;2023-04-24T10:28:57;6.28;;;4.82;;
21315;SDS011;10817;55.820;13.030;2023-04-24T10:31:25;6.00;;;4.13;;
21315;SDS011;10817;55.820;13.030;2023-04-24T10:33:55;5.20;;;3.97;;
21315;SDS011;10817;55.820;13.030;2023-04-24T10:36:44;4.80;;;4.10;;
21315;SDS011;10817;55.820;13.030;2023-04-24T10:39:27;6.05;;;3.90;;
21315;SDS011;10817;55.820;13.030;2023-04-24T10:41:58;5.22;;;4.13;;
21315;SDS011;10817;55.820;13.030;2023-04-24T10:44:27;7.18;;;4.00;;
21315;SDS011;10817;55.820;13.030;2023-04-24T10:47:02;5.88;;;4.00;;
21315;SDS011;10817;55.820;13.030;2023-04-24T10:49:37;6.35;;;3.95;;
21315;SDS011;10817;55.820;13.030;2023-04-24T10:52:05;5.63;;;3.70;;
21315;SDS011;10817;55.820;13.030;2023-04-24T10:54:34;5.20;;;4.15;;
21315;SDS011;10817;55.820;13.030;2023-04-24T11:00:16;7.32;;;4.40;;
21315;SDS011;10817;55.820;13.030;2023-04-24T11:02:45;4.78;;;4.28;;
21315;SDS011;10817;55.820;13.030;2023-04-24T11:05:22;4.57;;;4.10;;
21315;SDS011;10817;55.820;13.030;2023-04-24T11:08:14;6.55;;;4.32;;
21315;SDS011;10817;55.820;13.030;2023-04-24T11:10:55;6.43;;;5.32;;
21315;SDS011;10817;55.820;13.030;2023-04-24T11:13:23;9.02;;;5.10;;
21315;SDS011;10817;55.820;13.030;2023-04-24T11:18:38;5.82;;;4.95;;
21315;SDS011;10817;55.820;13.030;2023-04-24T11:21:10;5.55;;;4.50;;
21315;SDS011;10817;55.820;13.030;2023-04-24T11:23:39;5.65;;;4.63;;
21315;SDS011;10817;55.820;13.030;2023-04-24T11:26:10;4.83;;;4.27;;
21315;SDS011;10817;55.820;13.030;2023-04-24T11:28:43;5.78;;;4.60;;
21315;SDS011;10817;55.820;13.030;2023-04-24T11:33:54;6.32;;;4.18;;
21315;SDS011;10817;55.820;13.030;2023-04-24T11:36:21;6.03;;;5.00;;
21315;SDS011;10817;55.820;13.030;2023-04-24T11:38:49;4.65;;;3.97;;
21315;SDS011;10817;55.820;13.030;2023-04-24T11:41:16;7.88;;;5.05;;
21315;SDS011;10817;55.820;13.030;2023-04-24T11:43:43;6.90;;;4.60;;
21315;SDS011;10817;55.820;13.030;2023-04-24T11:46:10;6.20;;;4.60;;
21315;SDS011;10817;55.820;13.030;2023-04-24T11:48:46;6.60;;;4.97;;
21315;SDS011;10817;55.820;13.030;2023-04-24T11:51:17;6.25;;;4.80;;
21315;SDS011;10817;55.820;13.030;2023-04-24T11:53:44;7.68;;;5.43;;
21315;SDS011;10817;55.820;13.030;2023-04-24T11:56:24;5.75;;;4.53;;
21315;SDS011;10817;55.820;13.030;2023-04-24T11:58:56;8.13;;;4.93;;
21315;SDS011;10817;55.820;13.030;2023-04-24T12:01:31;5.88;;;4.45;;
21315;SDS011;10817;55.820;13.030;2023-04-24T12:04:21;8.32;;;4.88;;
21315;SDS011;10817;55.820;13.030;2023-04-24T12:07:00;5.22;;;4.53;;
21315;SDS011;10817;55.820;13.030;2023-04-24T12:09:49;5.10;;;4.32;;
21315;SDS011;10817;55.820;13.030;2023-04-24T12:13:02;4.72;;;3.58;;
21315;SDS011;10817;55.820;13.030;2023-04-24T12:15:33;4.43;;;3.40;;
21315;SDS011;10817;55.820;13.030;2023-04-24T12:18:14;5.20;;;4.70;;
21315;SDS011;10817;55.820;13.030;2023-04-24T12:20:43;4.80;;;3.88;;
21315;SDS011;10817;55.820;13.030;2023-04-24T12:23:13;5.78;;;4.70;;
21315;SDS011;10817;55.820;13.030;2023-04-24T12:25:46;7.47;;;5.10;;
21315;SDS011;10817;55.820;13.030;2023-04-24T12:31:05;6.07;;;5.00;;
21315;SDS011;10817;55.820;13.030;2023-04-24T12:33:33;6.18;;;4.75;;
21315;SDS011;10817;55.820;13.030;2023-04-24T12:36:04;6.20;;;5.28;;
21315;SDS011;10817;55.820;13.030;2023-04-24T12:38:33;7.40;;;5.75;;
21315;SDS011;10817;55.820;13.030;2023-04-24T12:41:11;9.75;;;5.97;;
21315;SDS011;10817;55.820;13.030;2023-04-24T12:43:55;8.23;;;5.47;;
21315;SDS011;10817;55.820;13.030;2023-04-24T12:46:40;6.47;;;5.40;;
21315;SDS011;10817;55.820;13.030;2023-04-24T12:49:10;9.00;;;4.47;;
21315;SDS011;10817;55.820;13.030;2023-04-24T12:51:44;4.63;;;4.13;;
21315;SDS011;10817;55.820;13.030;2023-04-24T12:54:36;4.75;;;4.25;;
21315;SDS011;10817;55.820;13.030;2023-04-24T12:57:23;5.25;;;4.35;;
21315;SDS011;10817;55.820;13.030;2023-04-24T12:59:53;5.88;;;4.57;;
21315;SDS011;10817;55.820;13.030;2023-04-24T13:02:26;5.27;;;4.50;;
21315;SDS011;10817;55.820;13.030;2023-04-24T13:04:54;5.63;;;4.45;;
21315;SDS011;10817;55.820;13.030;2023-04-24T13:07:23;6.30;;;5.05;;
21315;SDS011;10817;55.820;13.030;2023-04-24T13:10:10;6.15;;;5.07;;
21315;SDS011;10817;55.820;13.030;2023-04-24T13:15:48;5.95;;;5.35;;
21315;SDS011;10817;55.820;13.030;2023-04-24T13:18:15;7.43;;;5.20;;
21315;SDS011;10817;55.820;13.030;2023-04-24T13:20:45;6.32;;;4.70;;
21315;SDS011;10817;55.820;13.030;2023-04-24T13:23:30;4.90;;;4.20;;
21315;SDS011;10817;55.820;13.030;2023-04-24T13:26:04;7.15;;;3.90;;
21315;SDS011;10817;55.820;13.030;2023-04-24T13:28:35;7.07;;;3.70;;
21315;SDS011;10817;55.820;13.030;2023-04-24T13:31:09;3.42;;;3.10;;
21315;SDS011;10817;55.820;13.030;2023-04-24T13:33:40;3.55;;;3.15;;
21315;SDS011;10817;55.820;13.030;2023-04-24T13:36:07;3.10;;;2.80;;
21315;SDS011;10817;55.820;13.030;2023-04-24T13:39:00;2.97;;;2.70;;
21315;SDS011;10817;55.820;13.030;2023-04-24T13:41:57;3.10;;;2.75;;
21315;SDS011;10817;55.820;13.030;2023-04-24T13:44:54;3.25;;;2.75;;
21315;SDS011;10817;55.820;13.030;2023-04-24T13:48:11;3.75;;;3.20;;
21315;SDS011;10817;55.820;13.030;2023-04-24T13:51:10;3.10;;;2.70;;
21315;SDS011;10817;55.820;13.030;2023-04-24T13:53:51;3.53;;;2.60;;
21315;SDS011;10817;55.820;13.030;2023-04-24T13:56:34;3.30;;;2.10;;
21315;SDS011;10817;55.820;13.030;2023-04-24T13:59:12;2.58;;;2.25;;
21315;SDS011;10817;55.820;13.030;2023-04-24T14:01:48;3.10;;;2.10;;
21315;SDS011;10817;55.820;13.030;2023-04-24T14:08:00;2.80;;;2.30;;
21315;SDS011;10817;55.820;13.030;2023-04-24T14:14:02;3.50;;;2.47;;
21315;SDS011;10817;55.820;13.030;2023-04-24T14:16:34;2.50;;;2.30;;
21315;SDS011;10817;55.820;13.030;2023-04-24T14:19:25;3.50;;;2.30;;
21315;SDS011;10817;55.820;13.030;2023-04-24T14:23:00;3.10;;;2.80;;
21315;SDS011;10817;55.820;13.030;2023-04-24T14:25:33;2.58;;;2.10;;
21315;SDS011;10817;55.820;13.030;2023-04-24T14:28:05;2.85;;;1.80;;
21315;SDS011;10817;55.820;13.030;2023-04-24T14:30:37;4.28;;;2.03;;
21315;SDS011;10817;55.820;13.030;2023-04-24T14:33:46;2.78;;;1.83;;
21315;SDS011;10817;55.820;13.030;2023-04-24T14:36:59;1.70;;;1.60;;
21315;SDS011;10817;55.820;13.030;2023-04-24T14:39:27;2.97;;;1.75;;
21315;SDS011;10817;55.820;13.030;2023-04-24T14:41:57;2.40;;;1.90;;
21315;SDS011;10817;55.820;13.030;2023-04-24T14:46:34;2.42;;;2.08;;
21315;SDS011;10817;55.820;13.030;2023-04-24T15:00:31;3.35;;;2.17;;
21315;SDS011;10817;55.820;13.030;2023-04-24T15:03:23;2.72;;;2.30;;
21315;SDS011;10817;55.820;13.030;2023-04-24T15:06:01;2.42;;;2.15;;
21315;SDS011;10817;55.820;13.030;2023-04-24T15:08:45;4.22;;;2.47;;
21315;SDS011;10817;55.820;13.030;2023-04-24T15:17:09;4.60;;;2.22;;
21315;SDS011;10817;55.820;13.030;2023-04-24T15:18:38;2.45;;;1.80;;
21315;SDS011;10817;55.820;13.030;2023-04-24T15:21:19;2.28;;;1.80;;
21315;SDS011;10817;55.820;13.030;2023-04-24T15:23:53;1.35;;;1.25;;
21315;SDS011;10817;55.820;13.030;2023-04-24T15:26:32;1.30;;;1.20;;
21315;SDS011;10817;55.820;13.030;2023-04-24T15:32:07;1.67;;;1.23;;
21315;SDS011;10817;55.820;13.030;2023-04-24T15:34:39;1.95;;;1.30;;
21315;SDS011;10817;55.820;13.030;2023-04-24T15:37:15;1.40;;;1.10;;
21315;SDS011;10817;55.820;13.030;2023-04-24T15:39:59;1.20;;;1.10;;
21315;SDS011;10817;55.820;13.030;2023-04-24T15:42:31;1.40;;;1.30;;
21315;SDS011;10817;55.820;13.030;2023-04-24T15:45:01;2.42;;;1.30;;
21315;SDS011;10817;55.820;13.030;2023-04-24T15:47:36;1.40;;;1.27;;
21315;SDS011;10817;55.820;13.030;2023-04-24T15:50:53;4.40;;;1.65;;
21315;SDS011;10817;55.820;13.030;2023-04-24T15:53:20;2.83;;;1.60;;
21315;SDS011;10817;55.820;13.030;2023-04-24T15:55:48;3.63;;;1.70;;
21315;SDS011;10817;55.820;13.030;2023-04-24T15:58:30;1.55;;;1.45;;
21315;SDS011;10817;55.820;13.030;2023-04-24T16:01:26;1.40;;;1.30;;
21315;SDS011;10817;55.820;13.030;2023-04-24T16:03:53;2.10;;;1.50;;
21315;SDS011;10817;55.820;13.030;2023-04-24T16:06:22;2.72;;;1.52;;
21315;SDS011;10817;55.820;13.030;2023-04-24T16:08:49;5.13;;;1.70;;